sensor_id;sensor_type;location;lat;lon;timestamp;temperature;humidity
30379;DHT22;17168;49.164;9.060;2023-02-19T00:02:05;10.90;96.60
30379;DHT22;17168;49.164;9.060;2023-02-19T00:04:37;10.90;97.30
30379;DHT22;17168;49.164;9.060;2023-02-19T00:07:09;10.90;97.80
30379;DHT22;17168;49.164;9.060;2023-02-19T00:09:41;10.90;98.30
30379;DHT22;17168;49.164;9.060;2023-02-19T00:12:16;10.80;98.70
30379;DHT22;17168;49.164;9.060;2023-02-19T00:14:48;10.80;98.90
30379;DHT22;17168;49.164;9.060;2023-02-19T00:17:20;10.80;99.20
30379;DHT22;17168;49.164;9.060;2023-02-19T00:19:52;10.80;99.40
30379;DHT22;17168;49.164;9.060;2023-02-19T00:22:24;10.80;99.70
30379;DHT22;17168;49.164;9.060;2023-02-19T00:24:56;10.70;99.90
30379;DHT22;17168;49.164;9.060;2023-02-19T00:27:31;10.70;99.90
30379;DHT22;17168;49.164;9.060;2023-02-19T00:30:04;10.70;99.90
30379;DHT22;17168;49.164;9.060;2023-02-19T00:32:36;10.70;99.90
30379;DHT22;17168;49.164;9.060;2023-02-19T00:35:08;10.70;99.90
30379;DHT22;17168;49.164;9.060;2023-02-19T00:37:40;10.60;99.90
30379;DHT22;17168;49.164;9.060;2023-02-19T00:40:12;10.50;99.90
30379;DHT22;17168;49.164;9.060;2023-02-19T00:42:47;10.50;99.90
30379;DHT22;17168;49.164;9.060;2023-02-19T00:45:19;10.40;99.90
30379;DHT22;17168;49.164;9.060;2023-02-19T00:47:51;10.40;99.90
30379;DHT22;17168;49.164;9.060;2023-02-19T00:50:23;10.30;99.90
30379;DHT22;17168;49.164;9.060;2023-02-19T00:52:55;10.30;99.90
30379;DHT22;17168;49.164;9.060;2023-02-19T00:55:27;10.30;99.90
30379;DHT22;17168;49.164;9.060;2023-02-19T00:58:02;10.20;99.90
30379;DHT22;17168;49.164;9.060;2023-02-19T01:00:34;10.20;99.90
30379;DHT22;17168;49.164;9.060;2023-02-19T01:03:06;10.20;99.90
30379;DHT22;17168;49.164;9.060;2023-02-19T01:05:38;10.20;99.90
30379;DHT22;17168;49.164;9.060;2023-02-19T01:08:10;10.20;99.90
30379;DHT22;17168;49.164;9.060;2023-02-19T01:10:42;10.10;99.90
30379;DHT22;17168;49.164;9.060;2023-02-19T01:13:17;10.10;99.90
30379;DHT22;17168;49.164;9.060;2023-02-19T01:15:49;10.10;99.90
30379;DHT22;17168;49.164;9.060;2023-02-19T01:18:22;10.10;99.90
30379;DHT22;17168;49.164;9.060;2023-02-19T01:20:54;10.10;99.90
30379;DHT22;17168;49.164;9.060;2023-02-19T01:23:26;10.00;99.90
30379;DHT22;17168;49.164;9.060;2023-02-19T01:25:58;10.00;99.90
30379;DHT22;17168;49.164;9.060;2023-02-19T01:28:32;10.00;99.90
30379;DHT22;17168;49.164;9.060;2023-02-19T01:31:06;10.00;99.90
30379;DHT22;17168;49.164;9.060;2023-02-19T01:33:39;10.00;99.90
30379;DHT22;17168;49.164;9.060;2023-02-19T01:36:11;9.90;99.90
30379;DHT22;17168;49.164;9.060;2023-02-19T01:38:44;9.90;99.90
30379;DHT22;17168;49.164;9.060;2023-02-19T01:41:19;9.90;99.90
30379;DHT22;17168;49.164;9.060;2023-02-19T01:43:59;9.90;99.90
30379;DHT22;17168;49.164;9.060;2023-02-19T01:46:32;9.90;99.90
30379;DHT22;17168;49.164;9.060;2023-02-19T01:49:08;9.90;99.90
30379;DHT22;17168;49.164;9.060;2023-02-19T01:51:44;10.00;99.90
30379;DHT22;17168;49.164;9.060;2023-02-19T01:54:18;9.90;99.90
30379;DHT22;17168;49.164;9.060;2023-02-19T01:56:53;9.90;99.90
30379;DHT22;17168;49.164;9.060;2023-02-19T01:59:30;10.00;99.90
30379;DHT22;17168;49.164;9.060;2023-02-19T02:02:02;10.00;99.90
30379;DHT22;17168;49.164;9.060;2023-02-19T02:04:35;10.00;99.90
30379;DHT22;17168;49.164;9.060;2023-02-19T02:07:07;10.00;99.90
30379;DHT22;17168;49.164;9.060;2023-02-19T02:09:59;10.00;99.90
30379;DHT22;17168;49.164;9.060;2023-02-19T02:12:50;10.00;99.90
30379;DHT22;17168;49.164;9.060;2023-02-19T02:15:26;10.00;99.90
30379;DHT22;17168;49.164;9.060;2023-02-19T02:18:01;10.00;99.90
30379;DHT22;17168;49.164;9.060;2023-02-19T02:20:41;9.90;99.90
30379;DHT22;17168;49.164;9.060;2023-02-19T02:23:21;9.90;99.90
30379;DHT22;17168;49.164;9.060;2023-02-19T02:25:58;9.90;99.90
30379;DHT22;17168;49.164;9.060;2023-02-19T02:28:44;9.90;99.90
30379;DHT22;17168;49.164;9.060;2023-02-19T02:31:22;9.90;99.90
30379;DHT22;17168;49.164;9.060;2023-02-19T02:33:57;9.90;99.90
30379;DHT22;17168;49.164;9.060;2023-02-19T02:36:30;9.90;99.90
30379;DHT22;17168;49.164;9.060;2023-02-19T02:39:08;9.90;99.90
30379;DHT22;17168;49.164;9.060;2023-02-19T02:41:41;9.90;99.90
30379;DHT22;17168;49.164;9.060;2023-02-19T02:44:14;9.90;99.90
30379;DHT22;17168;49.164;9.060;2023-02-19T02:46:48;9.90;99.90
30379;DHT22;17168;49.164;9.060;2023-02-19T02:49:20;10.00;99.90
30379;DHT22;17168;49.164;9.060;2023-02-19T02:51:53;10.00;99.90
30379;DHT22;17168;49.164;9.060;2023-02-19T02:54:26;10.00;99.90
30379;DHT22;17168;49.164;9.060;2023-02-19T02:57:19;10.00;99.90
30379;DHT22;17168;49.164;9.060;2023-02-19T02:59:51;10.00;99.90
30379;DHT22;17168;49.164;9.060;2023-02-19T03:02:26;10.00;99.90
30379;DHT22;17168;49.164;9.060;2023-02-19T03:05:01;10.00;99.90
30379;DHT22;17168;49.164;9.060;2023-02-19T03:07:53;10.00;99.90
30379;DHT22;17168;49.164;9.060;2023-02-19T03:10:27;10.00;99.90
30379;DHT22;17168;49.164;9.060;2023-02-19T03:13:00;10.10;99.90
30379;DHT22;17168;49.164;9.060;2023-02-19T03:15:53;10.10;99.90
30379;DHT22;17168;49.164;9.060;2023-02-19T03:18:55;10.10;99.90
30379;DHT22;17168;49.164;9.060;2023-02-19T03:21:58;10.10;99.90
30379;DHT22;17168;49.164;9.060;2023-02-19T03:24:35;10.10;99.90
30379;DHT22;17168;49.164;9.060;2023-02-19T03:27:28;10.10;99.90
30379;DHT22;17168;49.164;9.060;2023-02-19T03:30:04;10.10;99.90
30379;DHT22;17168;49.164;9.060;2023-02-19T03:32:41;10.10;99.90
30379;DHT22;17168;49.164;9.060;2023-02-19T03:35:20;10.20;99.90
30379;DHT22;17168;49.164;9.060;2023-02-19T03:37:57;10.20;99.90
30379;DHT22;17168;49.164;9.060;2023-02-19T03:40:36;10.20;99.90
30379;DHT22;17168;49.164;9.060;2023-02-19T03:43:18;10.20;99.90
30379;DHT22;17168;49.164;9.060;2023-02-19T03:45:56;10.20;99.90
30379;DHT22;17168;49.164;9.060;2023-02-19T03:48:33;10.20;99.90
30379;DHT22;17168;49.164;9.060;2023-02-19T03:51:26;10.20;99.90
30379;DHT22;17168;49.164;9.060;2023-02-19T03:54:08;10.20;99.90
30379;DHT22;17168;49.164;9.060;2023-02-19T03:56:44;10.10;99.90
30379;DHT22;17168;49.164;9.060;2023-02-19T03:59:25;10.20;99.90
30379;DHT22;17168;49.164;9.060;2023-02-19T04:02:00;10.20;99.90
30379;DHT22;17168;49.164;9.060;2023-02-19T04:04:35;10.20;99.90
30379;DHT22;17168;49.164;9.060;2023-02-19T04:07:11;10.20;99.90
30379;DHT22;17168;49.164;9.060;2023-02-19T04:09:46;10.20;99.90
30379;DHT22;17168;49.164;9.060;2023-02-19T04:12:20;10.20;99.90
30379;DHT22;17168;49.164;9.060;2023-02-19T04:14:57;10.10;99.90
30379;DHT22;17168;49.164;9.060;2023-02-19T04:17:35;10.20;99.90
30379;DHT22;17168;49.164;9.060;2023-02-19T04:20:09;10.20;99.90
30379;DHT22;17168;49.164;9.060;2023-02-19T04:22:45;10.20;99.90
30379;DHT22;17168;49.164;9.060;2023-02-19T04:25:18;10.20;99.90
30379;DHT22;17168;49.164;9.060;2023-02-19T04:27:51;10.20;99.90
30379;DHT22;17168;49.164;9.060;2023-02-19T04:30:23;10.10;99.90
30379;DHT22;17168;49.164;9.060;2023-02-19T04:32:55;10.10;99.90
30379;DHT22;17168;49.164;9.060;2023-02-19T04:35:27;10.10;99.90
30379;DHT22;17168;49.164;9.060;2023-02-19T04:38:02;10.10;99.90
30379;DHT22;17168;49.164;9.060;2023-02-19T04:40:34;10.10;99.90
30379;DHT22;17168;49.164;9.060;2023-02-19T04:43:06;10.10;99.90
30379;DHT22;17168;49.164;9.060;2023-02-19T04:45:38;10.10;99.90
30379;DHT22;17168;49.164;9.060;2023-02-19T04:48:10;10.10;99.90
30379;DHT22;17168;49.164;9.060;2023-02-19T04:50:42;10.10;99.90
30379;DHT22;17168;49.164;9.060;2023-02-19T04:53:17;10.10;99.90
30379;DHT22;17168;49.164;9.060;2023-02-19T04:55:49;10.10;99.90
30379;DHT22;17168;49.164;9.060;2023-02-19T04:58:24;10.10;99.90
30379;DHT22;17168;49.164;9.060;2023-02-19T05:00:56;10.10;99.90
30379;DHT22;17168;49.164;9.060;2023-02-19T05:03:28;10.00;99.90
30379;DHT22;17168;49.164;9.060;2023-02-19T05:06:01;10.00;99.90
30379;DHT22;17168;49.164;9.060;2023-02-19T05:08:36;10.10;99.90
30379;DHT22;17168;49.164;9.060;2023-02-19T05:11:10;10.10;99.90
30379;DHT22;17168;49.164;9.060;2023-02-19T05:13:42;10.00;99.90
30379;DHT22;17168;49.164;9.060;2023-02-19T05:16:15;10.00;99.90
30379;DHT22;17168;49.164;9.060;2023-02-19T05:18:47;10.00;99.90
30379;DHT22;17168;49.164;9.060;2023-02-19T05:21:19;10.00;99.90
30379;DHT22;17168;49.164;9.060;2023-02-19T05:23:54;10.00;99.90
30379;DHT22;17168;49.164;9.060;2023-02-19T05:26:26;9.90;99.90
30379;DHT22;17168;49.164;9.060;2023-02-19T05:28:58;9.90;99.90
30379;DHT22;17168;49.164;9.060;2023-02-19T05:31:31;9.80;99.90
30379;DHT22;17168;49.164;9.060;2023-02-19T05:34:04;9.80;99.90
30379;DHT22;17168;49.164;9.060;2023-02-19T05:36:36;9.80;99.90
30379;DHT22;17168;49.164;9.060;2023-02-19T05:39:12;9.80;99.90
30379;DHT22;17168;49.164;9.060;2023-02-19T05:41:47;9.80;99.90
30379;DHT22;17168;49.164;9.060;2023-02-19T05:44:19;9.80;99.90
30379;DHT22;17168;49.164;9.060;2023-02-19T05:46:51;9.80;99.90
30379;DHT22;17168;49.164;9.060;2023-02-19T05:49:23;9.80;99.90
30379;DHT22;17168;49.164;9.060;2023-02-19T05:51:55;9.80;99.90
30379;DHT22;17168;49.164;9.060;2023-02-19T05:54:30;9.80;99.90
30379;DHT22;17168;49.164;9.060;2023-02-19T05:57:02;9.80;99.90
30379;DHT22;17168;49.164;9.060;2023-02-19T05:59:35;9.80;99.90
30379;DHT22;17168;49.164;9.060;2023-02-19T06:02:08;9.80;99.90
30379;DHT22;17168;49.164;9.060;2023-02-19T06:04:41;9.80;99.90
30379;DHT22;17168;49.164;9.060;2023-02-19T06:07:13;9.80;99.90
30379;DHT22;17168;49.164;9.060;2023-02-19T06:09:49;9.80;99.90
30379;DHT22;17168;49.164;9.060;2023-02-19T06:12:20;9.80;99.90
30379;DHT22;17168;49.164;9.060;2023-02-19T06:14:52;9.80;99.90
30379;DHT22;17168;49.164;9.060;2023-02-19T06:17:24;9.80;99.90
30379;DHT22;17168;49.164;9.060;2023-02-19T06:19:56;9.80;99.90
30379;DHT22;17168;49.164;9.060;2023-02-19T06:22:28;9.80;99.90
30379;DHT22;17168;49.164;9.060;2023-02-19T06:25:02;9.80;99.90
30379;DHT22;17168;49.164;9.060;2023-02-19T06:27:35;9.80;99.90
30379;DHT22;17168;49.164;9.060;2023-02-19T06:30:07;9.80;99.90
30379;DHT22;17168;49.164;9.060;2023-02-19T06:32:39;9.80;99.90
30379;DHT22;17168;49.164;9.060;2023-02-19T06:35:11;9.80;99.90
30379;DHT22;17168;49.164;9.060;2023-02-19T06:37:45;9.80;99.90
30379;DHT22;17168;49.164;9.060;2023-02-19T06:40:19;9.80;99.90
30379;DHT22;17168;49.164;9.060;2023-02-19T06:42:51;9.80;99.90
30379;DHT22;17168;49.164;9.060;2023-02-19T06:45:23;9.80;99.90
30379;DHT22;17168;49.164;9.060;2023-02-19T06:47:55;9.80;99.90
30379;DHT22;17168;49.164;9.060;2023-02-19T06:50:26;9.80;99.90
30379;DHT22;17168;49.164;9.060;2023-02-19T06:52:58;9.80;99.90
30379;DHT22;17168;49.164;9.060;2023-02-19T06:55:32;9.80;99.90
30379;DHT22;17168;49.164;9.060;2023-02-19T06:58:05;9.80;99.90
30379;DHT22;17168;49.164;9.060;2023-02-19T07:00:36;9.80;99.90
30379;DHT22;17168;49.164;9.060;2023-02-19T07:03:08;9.80;99.90
30379;DHT22;17168;49.164;9.060;2023-02-19T07:05:40;9.80;99.90
30379;DHT22;17168;49.164;9.060;2023-02-19T07:08:12;9.80;99.90
30379;DHT22;17168;49.164;9.060;2023-02-19T07:10:52;9.80;99.90
30379;DHT22;17168;49.164;9.060;2023-02-19T07:13:25;9.90;99.90
30379;DHT22;17168;49.164;9.060;2023-02-19T07:16:00;9.90;99.90
30379;DHT22;17168;49.164;9.060;2023-02-19T07:18:33;9.90;99.90
30379;DHT22;17168;49.164;9.060;2023-02-19T07:21:07;9.90;99.90
30379;DHT22;17168;49.164;9.060;2023-02-19T07:23:40;9.90;99.90
30379;DHT22;17168;49.164;9.060;2023-02-19T07:26:16;9.90;99.90
30379;DHT22;17168;49.164;9.060;2023-02-19T07:28:51;10.00;99.90
30379;DHT22;17168;49.164;9.060;2023-02-19T07:31:23;10.00;99.90
30379;DHT22;17168;49.164;9.060;2023-02-19T07:33:56;10.00;99.90
30379;DHT22;17168;49.164;9.060;2023-02-19T07:36:28;10.00;99.90
30379;DHT22;17168;49.164;9.060;2023-02-19T07:39:00;10.00;99.90
30379;DHT22;17168;49.164;9.060;2023-02-19T07:41:34;10.10;99.90
30379;DHT22;17168;49.164;9.060;2023-02-19T07:44:06;10.10;99.90
30379;DHT22;17168;49.164;9.060;2023-02-19T07:46:38;10.10;99.90
30379;DHT22;17168;49.164;9.060;2023-02-19T07:49:10;10.10;99.90
30379;DHT22;17168;49.164;9.060;2023-02-19T07:51:42;10.10;99.90
30379;DHT22;17168;49.164;9.060;2023-02-19T07:54:15;10.10;99.90
30379;DHT22;17168;49.164;9.060;2023-02-19T07:56:49;10.20;99.90
30379;DHT22;17168;49.164;9.060;2023-02-19T07:59:22;10.20;99.90
30379;DHT22;17168;49.164;9.060;2023-02-19T08:01:54;10.20;99.90
30379;DHT22;17168;49.164;9.060;2023-02-19T08:04:46;10.20;99.90
30379;DHT22;17168;49.164;9.060;2023-02-19T08:07:18;10.20;99.90
30379;DHT22;17168;49.164;9.060;2023-02-19T08:09:50;10.20;99.90
30379;DHT22;17168;49.164;9.060;2023-02-19T08:12:45;10.30;99.90
30379;DHT22;17168;49.164;9.060;2023-02-19T08:15:35;10.30;99.90
30379;DHT22;17168;49.164;9.060;2023-02-19T08:18:07;10.30;99.90
30379;DHT22;17168;49.164;9.060;2023-02-19T08:20:39;10.30;99.90
30379;DHT22;17168;49.164;9.060;2023-02-19T08:23:11;10.30;99.90
30379;DHT22;17168;49.164;9.060;2023-02-19T08:25:43;10.30;99.90
30379;DHT22;17168;49.164;9.060;2023-02-19T08:28:18;10.30;99.90
30379;DHT22;17168;49.164;9.060;2023-02-19T08:30:50;10.40;99.90
30379;DHT22;17168;49.164;9.060;2023-02-19T08:33:22;10.40;99.90
30379;DHT22;17168;49.164;9.060;2023-02-19T08:35:54;10.40;99.90
30379;DHT22;17168;49.164;9.060;2023-02-19T08:38:26;10.50;99.90
30379;DHT22;17168;49.164;9.060;2023-02-19T08:40:57;10.50;99.90
30379;DHT22;17168;49.164;9.060;2023-02-19T08:43:32;10.60;99.90
30379;DHT22;17168;49.164;9.060;2023-02-19T08:46:04;10.60;99.90
30379;DHT22;17168;49.164;9.060;2023-02-19T08:48:37;10.60;99.90
30379;DHT22;17168;49.164;9.060;2023-02-19T08:51:10;10.60;99.90
30379;DHT22;17168;49.164;9.060;2023-02-19T08:53:43;10.70;99.90
30379;DHT22;17168;49.164;9.060;2023-02-19T08:56:15;10.70;99.90
30379;DHT22;17168;49.164;9.060;2023-02-19T08:58:50;10.70;99.90
30379;DHT22;17168;49.164;9.060;2023-02-19T09:01:22;10.70;99.90
30379;DHT22;17168;49.164;9.060;2023-02-19T09:03:55;10.70;99.90
30379;DHT22;17168;49.164;9.060;2023-02-19T09:06:27;10.80;99.90
30379;DHT22;17168;49.164;9.060;2023-02-19T09:08:59;10.80;99.90
30379;DHT22;17168;49.164;9.060;2023-02-19T09:11:31;10.80;99.90
30379;DHT22;17168;49.164;9.060;2023-02-19T09:14:05;10.80;99.90
30379;DHT22;17168;49.164;9.060;2023-02-19T09:16:38;10.90;99.90
30379;DHT22;17168;49.164;9.060;2023-02-19T09:19:10;10.90;99.90
30379;DHT22;17168;49.164;9.060;2023-02-19T09:21:42;11.00;99.90
30379;DHT22;17168;49.164;9.060;2023-02-19T09:24:14;11.00;99.90
30379;DHT22;17168;49.164;9.060;2023-02-19T09:26:48;11.00;99.90
30379;DHT22;17168;49.164;9.060;2023-02-19T09:29:24;11.00;99.90
30379;DHT22;17168;49.164;9.060;2023-02-19T09:31:57;11.10;99.90
30379;DHT22;17168;49.164;9.060;2023-02-19T09:34:29;11.10;99.90
30379;DHT22;17168;49.164;9.060;2023-02-19T09:37:01;11.10;99.90
30379;DHT22;17168;49.164;9.060;2023-02-19T09:39:34;11.10;99.90
30379;DHT22;17168;49.164;9.060;2023-02-19T09:42:11;11.10;99.90
30379;DHT22;17168;49.164;9.060;2023-02-19T09:44:51;11.10;99.90
30379;DHT22;17168;49.164;9.060;2023-02-19T09:47:25;11.10;99.90
30379;DHT22;17168;49.164;9.060;2023-02-19T09:50:00;11.20;99.90
30379;DHT22;17168;49.164;9.060;2023-02-19T09:52:38;11.20;99.90
30379;DHT22;17168;49.164;9.060;2023-02-19T09:55:15;11.20;99.90
30379;DHT22;17168;49.164;9.060;2023-02-19T09:57:49;11.20;99.90
30379;DHT22;17168;49.164;9.060;2023-02-19T10:00:26;11.20;99.90
30379;DHT22;17168;49.164;9.060;2023-02-19T10:03:03;11.20;99.90
30379;DHT22;17168;49.164;9.060;2023-02-19T10:05:38;11.20;99.90
30379;DHT22;17168;49.164;9.060;2023-02-19T10:08:16;11.20;99.90
30379;DHT22;17168;49.164;9.060;2023-02-19T10:10:49;11.20;99.90
30379;DHT22;17168;49.164;9.060;2023-02-19T10:13:23;11.30;99.90
30379;DHT22;17168;49.164;9.060;2023-02-19T10:16:03;11.30;99.90
30379;DHT22;17168;49.164;9.060;2023-02-19T10:18:38;11.30;99.90
30379;DHT22;17168;49.164;9.060;2023-02-19T10:21:17;11.30;99.90
30379;DHT22;17168;49.164;9.060;2023-02-19T10:23:54;11.30;99.90
30379;DHT22;17168;49.164;9.060;2023-02-19T10:26:27;11.30;99.90
30379;DHT22;17168;49.164;9.060;2023-02-19T10:29:02;11.30;99.90
30379;DHT22;17168;49.164;9.060;2023-02-19T10:31:37;11.30;99.90
30379;DHT22;17168;49.164;9.060;2023-02-19T10:34:18;11.30;99.90
30379;DHT22;17168;49.164;9.060;2023-02-19T10:36:51;11.30;99.90
30379;DHT22;17168;49.164;9.060;2023-02-19T10:39:40;11.30;99.90
30379;DHT22;17168;49.164;9.060;2023-02-19T10:42:14;11.40;99.90
30379;DHT22;17168;49.164;9.060;2023-02-19T10:44:51;11.40;99.90
30379;DHT22;17168;49.164;9.060;2023-02-19T10:47:29;11.40;99.90
30379;DHT22;17168;49.164;9.060;2023-02-19T10:50:02;11.50;99.90
30379;DHT22;17168;49.164;9.060;2023-02-19T10:52:35;11.50;99.90
30379;DHT22;17168;49.164;9.060;2023-02-19T10:55:15;11.60;99.90
30379;DHT22;17168;49.164;9.060;2023-02-19T10:57:51;11.60;99.90
30379;DHT22;17168;49.164;9.060;2023-02-19T11:00:27;11.60;99.90
30379;DHT22;17168;49.164;9.060;2023-02-19T11:03:19;11.70;99.90
30379;DHT22;17168;49.164;9.060;2023-02-19T11:05:53;11.70;99.90
30379;DHT22;17168;49.164;9.060;2023-02-19T11:08:27;11.70;99.90
30379;DHT22;17168;49.164;9.060;2023-02-19T11:10:59;11.70;99.90
30379;DHT22;17168;49.164;9.060;2023-02-19T11:13:32;11.70;99.90
30379;DHT22;17168;49.164;9.060;2023-02-19T11:16:08;11.70;99.90
30379;DHT22;17168;49.164;9.060;2023-02-19T11:18:42;11.70;99.90
30379;DHT22;17168;49.164;9.060;2023-02-19T11:21:22;11.70;99.90
30379;DHT22;17168;49.164;9.060;2023-02-19T11:23:55;11.70;99.90
30379;DHT22;17168;49.164;9.060;2023-02-19T11:26:28;11.70;99.90
30379;DHT22;17168;49.164;9.060;2023-02-19T11:29:10;11.70;99.90
30379;DHT22;17168;49.164;9.060;2023-02-19T11:31:43;11.70;99.90
30379;DHT22;17168;49.164;9.060;2023-02-19T11:34:25;11.70;99.90
30379;DHT22;17168;49.164;9.060;2023-02-19T11:37:07;11.70;99.90
30379;DHT22;17168;49.164;9.060;2023-02-19T11:39:39;11.70;99.90
30379;DHT22;17168;49.164;9.060;2023-02-19T11:45:10;11.70;99.90
30379;DHT22;17168;49.164;9.060;2023-02-19T11:47:48;11.70;99.90
30379;DHT22;17168;49.164;9.060;2023-02-19T11:50:26;11.80;99.50
30379;DHT22;17168;49.164;9.060;2023-02-19T11:53:03;11.80;99.60
30379;DHT22;17168;49.164;9.060;2023-02-19T11:55:41;11.80;98.90
30379;DHT22;17168;49.164;9.060;2023-02-19T11:58:25;11.80;98.30
30379;DHT22;17168;49.164;9.060;2023-02-19T12:01:02;11.80;98.30
30379;DHT22;17168;49.164;9.060;2023-02-19T12:03:52;11.90;98.00
30379;DHT22;17168;49.164;9.060;2023-02-19T12:06:28;11.90;97.80
30379;DHT22;17168;49.164;9.060;2023-02-19T12:09:12;11.90;97.60
30379;DHT22;17168;49.164;9.060;2023-02-19T12:12:15;12.00;97.40
30379;DHT22;17168;49.164;9.060;2023-02-19T12:18:02;12.10;97.40
30379;DHT22;17168;49.164;9.060;2023-02-19T12:20:40;12.20;97.50
30379;DHT22;17168;49.164;9.060;2023-02-19T12:23:37;12.50;97.30
30379;DHT22;17168;49.164;9.060;2023-02-19T12:26:21;12.60;96.60
30379;DHT22;17168;49.164;9.060;2023-02-19T12:29:05;12.70;96.60
30379;DHT22;17168;49.164;9.060;2023-02-19T12:32:00;12.80;96.20
30379;DHT22;17168;49.164;9.060;2023-02-19T12:37:37;12.90;95.00
30379;DHT22;17168;49.164;9.060;2023-02-19T12:40:27;13.00;94.50
30379;DHT22;17168;49.164;9.060;2023-02-19T12:43:09;13.00;93.80
30379;DHT22;17168;49.164;9.060;2023-02-19T12:45:46;13.00;93.90
30379;DHT22;17168;49.164;9.060;2023-02-19T12:48:26;13.10;94.10
30379;DHT22;17168;49.164;9.060;2023-02-19T12:51:04;13.20;93.80
30379;DHT22;17168;49.164;9.060;2023-02-19T12:53:40;13.20;93.60
30379;DHT22;17168;49.164;9.060;2023-02-19T12:56:19;13.10;93.10
30379;DHT22;17168;49.164;9.060;2023-02-19T12:58:55;12.90;92.90
30379;DHT22;17168;49.164;9.060;2023-02-19T13:01:31;12.80;92.90
30379;DHT22;17168;49.164;9.060;2023-02-19T13:04:18;12.60;92.90
30379;DHT22;17168;49.164;9.060;2023-02-19T13:06:57;12.60;93.30
30379;DHT22;17168;49.164;9.060;2023-02-19T13:09:34;12.50;93.70
30379;DHT22;17168;49.164;9.060;2023-02-19T13:12:13;12.50;94.10
30379;DHT22;17168;49.164;9.060;2023-02-19T13:14:48;12.60;94.30
30379;DHT22;17168;49.164;9.060;2023-02-19T13:17:26;12.60;94.40
30379;DHT22;17168;49.164;9.060;2023-02-19T13:20:03;12.60;94.10
30379;DHT22;17168;49.164;9.060;2023-02-19T13:22:45;12.70;94.30
30379;DHT22;17168;49.164;9.060;2023-02-19T13:25:46;12.70;94.00
30379;DHT22;17168;49.164;9.060;2023-02-19T13:28:39;12.70;93.70
30379;DHT22;17168;49.164;9.060;2023-02-19T13:31:26;12.70;93.50
30379;DHT22;17168;49.164;9.060;2023-02-19T13:34:10;12.70;93.40
30379;DHT22;17168;49.164;9.060;2023-02-19T13:36:45;12.70;92.70
30379;DHT22;17168;49.164;9.060;2023-02-19T13:39:20;12.80;92.50
30379;DHT22;17168;49.164;9.060;2023-02-19T13:41:54;12.80;92.40
30379;DHT22;17168;49.164;9.060;2023-02-19T13:44:31;12.90;92.60
30379;DHT22;17168;49.164;9.060;2023-02-19T13:47:03;12.90;92.50
30379;DHT22;17168;49.164;9.060;2023-02-19T13:49:39;13.00;92.40
30379;DHT22;17168;49.164;9.060;2023-02-19T13:52:41;13.10;92.60
30379;DHT22;17168;49.164;9.060;2023-02-19T13:55:42;13.20;92.40
30379;DHT22;17168;49.164;9.060;2023-02-19T14:04:48;13.30;91.00
30379;DHT22;17168;49.164;9.060;2023-02-19T14:10:55;13.10;90.60
30379;DHT22;17168;49.164;9.060;2023-02-19T14:13:56;13.00;90.60
30379;DHT22;17168;49.164;9.060;2023-02-19T14:16:51;12.90;90.70
30379;DHT22;17168;49.164;9.060;2023-02-19T14:19:51;12.90;90.90
30379;DHT22;17168;49.164;9.060;2023-02-19T14:22:45;12.80;90.90
30379;DHT22;17168;49.164;9.060;2023-02-19T14:25:40;12.80;91.00
30379;DHT22;17168;49.164;9.060;2023-02-19T14:28:18;12.80;91.00
30379;DHT22;17168;49.164;9.060;2023-02-19T14:30:52;12.70;90.70
30379;DHT22;17168;49.164;9.060;2023-02-19T14:33:28;12.80;90.80
30379;DHT22;17168;49.164;9.060;2023-02-19T14:36:05;12.80;90.90
30379;DHT22;17168;49.164;9.060;2023-02-19T14:38:46;12.80;90.90
30379;DHT22;17168;49.164;9.060;2023-02-19T14:41:20;12.80;90.80
30379;DHT22;17168;49.164;9.060;2023-02-19T14:43:56;12.80;90.90
30379;DHT22;17168;49.164;9.060;2023-02-19T14:46:31;12.80;90.80
30379;DHT22;17168;49.164;9.060;2023-02-19T14:49:11;12.70;90.70
30379;DHT22;17168;49.164;9.060;2023-02-19T14:51:50;12.70;90.50
30379;DHT22;17168;49.164;9.060;2023-02-19T14:54:37;12.70;90.60
30379;DHT22;17168;49.164;9.060;2023-02-19T14:57:14;12.70;90.80
30379;DHT22;17168;49.164;9.060;2023-02-19T14:59:52;12.70;90.80
30379;DHT22;17168;49.164;9.060;2023-02-19T15:02:29;12.70;90.90
30379;DHT22;17168;49.164;9.060;2023-02-19T15:05:14;12.70;91.00
30379;DHT22;17168;49.164;9.060;2023-02-19T15:07:49;12.60;91.00
30379;DHT22;17168;49.164;9.060;2023-02-19T15:10:22;12.60;91.10
30379;DHT22;17168;49.164;9.060;2023-02-19T15:12:56;12.60;91.10
30379;DHT22;17168;49.164;9.060;2023-02-19T15:15:31;12.60;91.00
30379;DHT22;17168;49.164;9.060;2023-02-19T15:18:04;12.60;91.00
30379;DHT22;17168;49.164;9.060;2023-02-19T15:20:37;12.60;91.00
30379;DHT22;17168;49.164;9.060;2023-02-19T15:23:18;12.50;90.90
30379;DHT22;17168;49.164;9.060;2023-02-19T15:25:52;12.50;90.90
30379;DHT22;17168;49.164;9.060;2023-02-19T15:28:30;12.50;90.80
30379;DHT22;17168;49.164;9.060;2023-02-19T15:31:09;12.50;90.80
30379;DHT22;17168;49.164;9.060;2023-02-19T15:33:53;12.50;90.80
30379;DHT22;17168;49.164;9.060;2023-02-19T15:36:27;12.50;90.90
30379;DHT22;17168;49.164;9.060;2023-02-19T15:39:03;12.50;90.80
30379;DHT22;17168;49.164;9.060;2023-02-19T15:41:35;12.50;90.50
30379;DHT22;17168;49.164;9.060;2023-02-19T15:44:26;12.40;90.50
30379;DHT22;17168;49.164;9.060;2023-02-19T15:47:06;12.40;90.60
30379;DHT22;17168;49.164;9.060;2023-02-19T15:49:45;12.40;90.80
30379;DHT22;17168;49.164;9.060;2023-02-19T15:52:23;12.40;90.90
30379;DHT22;17168;49.164;9.060;2023-02-19T15:55:06;12.40;91.10
30379;DHT22;17168;49.164;9.060;2023-02-19T15:57:41;12.30;91.20
30379;DHT22;17168;49.164;9.060;2023-02-19T16:00:20;12.30;91.30
30379;DHT22;17168;49.164;9.060;2023-02-19T16:02:53;12.30;91.50
30379;DHT22;17168;49.164;9.060;2023-02-19T16:05:27;12.20;91.60
30379;DHT22;17168;49.164;9.060;2023-02-19T16:08:15;12.20;91.70
30379;DHT22;17168;49.164;9.060;2023-02-19T16:10:58;12.20;91.90
30379;DHT22;17168;49.164;9.060;2023-02-19T16:13:32;12.20;92.00
30379;DHT22;17168;49.164;9.060;2023-02-19T16:16:13;12.10;92.10
30379;DHT22;17168;49.164;9.060;2023-02-19T16:18:48;12.10;92.20
30379;DHT22;17168;49.164;9.060;2023-02-19T16:21:25;12.10;92.20
30379;DHT22;17168;49.164;9.060;2023-02-19T16:24:02;12.10;92.30
30379;DHT22;17168;49.164;9.060;2023-02-19T16:26:41;12.00;92.30
30379;DHT22;17168;49.164;9.060;2023-02-19T16:29:16;12.00;92.30
30379;DHT22;17168;49.164;9.060;2023-02-19T16:31:51;12.00;92.30
30379;DHT22;17168;49.164;9.060;2023-02-19T16:34:33;11.90;92.30
30379;DHT22;17168;49.164;9.060;2023-02-19T16:37:33;11.90;92.40
30379;DHT22;17168;49.164;9.060;2023-02-19T16:43:25;11.80;92.20
30379;DHT22;17168;49.164;9.060;2023-02-19T16:45:58;11.80;92.20
30379;DHT22;17168;49.164;9.060;2023-02-19T16:48:32;11.70;92.20
30379;DHT22;17168;49.164;9.060;2023-02-19T16:51:06;11.70;92.20
30379;DHT22;17168;49.164;9.060;2023-02-19T16:53:38;11.70;92.30